Terminal Aerodrome Forecast
Issued by NWS Portland, OR

Home | Current Version | Previous Version | Text Only | Print | Product List | Glossary On
Versions: 1 2 3 4 5 6 7 8 9 10 11 12 13 14 15 16 17 18 19 20 21 22 23 24 25 26 27 28 29 30 31 32 33
000
FTUS46 KPQR 080904 AAA
TAFPDX
TAF AMD
KPDX 080904Z 0809/0906 09024G35KT P6SM SCT120 OVC200
     FM081500 09025G37KT P6SM SCT060 BKN120
      TEMPO 0816/0818 -SN
     FM081800 10025G39KT 2SM -SN BR BKN015 OVC040
     FM082000 10025G38KT 3/4SM -SN BR BKN008 OVC012
     FM090100 10023G33KT 4SM -FZRAPL BR SCT006 OVC012
     FM090400 11015G25KT 5SM -FZDZ BR BKN012 OVC025=

USA.gov is the U.S. government's official web portal to all federal, state and local government web resources and services.